Frederike Selmer — V7QY8 — position and weather

sailwx.info

Track history (hours):
 
Tides and Currents Weather Stations Pressure Air Temp Water Temp Dewpoint Dewpoint Depression Visibility Wind Speed Wind Dir Waves Ship Positions

Frederike Selmer

Last reported at 2014-Oct-20 08:22 UTC. Time now 2014-Oct-25 18:24 UTC.
Position N 37°60' E 121°05'.

Length 188 m; draft 12.3 m.

Type: Cargo ship. MMSI: 538090377.

Date/timePositionNaut miles runAvg speedWind from/ knotsBaromVisibWave heightAir tempDewpointWater temp
2014-Oct-20 08:22N 37°60' E 121°05'911.0
2014-Oct-20 07:33N 37°60' E 121°16'1111.3
2014-Oct-20 06:33N 37°60' E 121°30'1211.4
2014-Oct-20 05:28N 37°57' E 121°46'1111.7
2014-Oct-20 04:31N 37°56' E 121°60'1111.7
2014-Oct-20 03:32N 37°53' E 122°14'1311.4
2014-Oct-20 02:23N 37°50' E 122°30'6310.5
2014-Oct-19 20:27N 36°56' E 123°09'  
2014-Oct-10 10:04N 01°14' E 104°05'611.9
2014-Oct-10 09:33N 01°14' E 103°59'3 3.1
2014-Oct-10 08:30N 01°16' E 103°57'  
Track history (hours):
 
Tides and Currents Weather Stations Pressure Air Temp Water Temp Dewpoint Dewpoint Depression Visibility Wind Speed Wind Dir Waves Ship Positions

Frederike Selmer

Last reported at 2014-Oct-20 08:22 UTC. Time now 2014-Oct-25 18:24 UTC.
Position N 37°60' E 121°05'.

Length 188 m; draft 12.3 m.

Type: Cargo ship. MMSI: 538090377.

Date/timePositionNaut miles runAvg speedWind from/ knotsBaromVisibWave heightAir tempDewpointWater temp
2014-Oct-20 08:22N 37°60' E 121°05'911.0
2014-Oct-20 07:33N 37°60' E 121°16'1111.3
2014-Oct-20 06:33N 37°60' E 121°30'1211.4
2014-Oct-20 05:28N 37°57' E 121°46'1111.7
2014-Oct-20 04:31N 37°56' E 121°60'1111.7
2014-Oct-20 03:32N 37°53' E 122°14'1311.4
2014-Oct-20 02:23N 37°50' E 122°30'6310.5
2014-Oct-19 20:27N 36°56' E 123°09'  
2014-Oct-10 10:04N 01°14' E 104°05'611.9
2014-Oct-10 09:33N 01°14' E 103°59'3 3.1
2014-Oct-10 08:30N 01°16' E 103°57'  

Dump ship's entire track history